sensor_id;sensor_type;location;lat;lon;timestamp;P1;durP1;ratioP1;P2;durP2;ratioP2
4676;SDS011;2352;48.180;11.478;2023-04-25T00:02:06;2.93;;;1.83;;
4676;SDS011;2352;48.180;11.478;2023-04-25T00:05:10;2.17;;;1.47;;
4676;SDS011;2352;48.180;11.478;2023-04-25T00:08:14;1.43;;;1.33;;
4676;SDS011;2352;48.180;11.478;2023-04-25T00:11:17;1.67;;;1.57;;
4676;SDS011;2352;48.180;11.478;2023-04-25T00:14:20;1.60;;;1.50;;
4676;SDS011;2352;48.180;11.478;2023-04-25T00:17:23;1.63;;;1.53;;
4676;SDS011;2352;48.180;11.478;2023-04-25T00:20:28;1.53;;;1.43;;
4676;SDS011;2352;48.180;11.478;2023-04-25T00:23:32;1.90;;;1.10;;
4676;SDS011;2352;48.180;11.478;2023-04-25T00:26:37;2.03;;;1.53;;
4676;SDS011;2352;48.180;11.478;2023-04-25T00:29:40;1.50;;;1.40;;
4676;SDS011;2352;48.180;11.478;2023-04-25T00:32:42;1.93;;;1.73;;
4676;SDS011;2352;48.180;11.478;2023-04-25T00:35:46;1.73;;;1.50;;
4676;SDS011;2352;48.180;11.478;2023-04-25T00:38:51;2.13;;;1.30;;
4676;SDS011;2352;48.180;11.478;2023-04-25T00:41:55;2.00;;;1.47;;
4676;SDS011;2352;48.180;11.478;2023-04-25T00:44:59;2.00;;;1.40;;
4676;SDS011;2352;48.180;11.478;2023-04-25T00:48:03;1.70;;;1.60;;
4676;SDS011;2352;48.180;11.478;2023-04-25T00:51:07;1.47;;;1.37;;
4676;SDS011;2352;48.180;11.478;2023-04-25T00:54:11;1.40;;;1.30;;
4676;SDS011;2352;48.180;11.478;2023-04-25T00:57:14;1.70;;;1.50;;
4676;SDS011;2352;48.180;11.478;2023-04-25T01:00:18;1.50;;;1.40;;
4676;SDS011;2352;48.180;11.478;2023-04-25T01:03:22;3.07;;;1.67;;
4676;SDS011;2352;48.180;11.478;2023-04-25T01:06:25;1.77;;;1.67;;
4676;SDS011;2352;48.180;11.478;2023-04-25T01:09:30;1.60;;;1.50;;
4676;SDS011;2352;48.180;11.478;2023-04-25T01:12:34;1.23;;;1.13;;
4676;SDS011;2352;48.180;11.478;2023-04-25T01:15:37;1.70;;;1.60;;
4676;SDS011;2352;48.180;11.478;2023-04-25T01:18:40;5.97;;;2.00;;
4676;SDS011;2352;48.180;11.478;2023-04-25T01:21:45;1.40;;;1.30;;
4676;SDS011;2352;48.180;11.478;2023-04-25T01:24:48;3.23;;;1.20;;
4676;SDS011;2352;48.180;11.478;2023-04-25T01:27:51;1.43;;;1.23;;
4676;SDS011;2352;48.180;11.478;2023-04-25T01:30:54;1.63;;;1.53;;
4676;SDS011;2352;48.180;11.478;2023-04-25T01:33:58;1.53;;;1.43;;
4676;SDS011;2352;48.180;11.478;2023-04-25T01:37:03;3.10;;;1.20;;
4676;SDS011;2352;48.180;11.478;2023-04-25T01:40:06;1.50;;;1.40;;
4676;SDS011;2352;48.180;11.478;2023-04-25T01:43:10;1.33;;;1.23;;
4676;SDS011;2352;48.180;11.478;2023-04-25T01:46:13;1.47;;;1.37;;
4676;SDS011;2352;48.180;11.478;2023-04-25T01:49:16;3.60;;;2.10;;
4676;SDS011;2352;48.180;11.478;2023-04-25T01:52:20;1.97;;;1.70;;
4676;SDS011;2352;48.180;11.478;2023-04-25T01:55:23;1.53;;;1.43;;
4676;SDS011;2352;48.180;11.478;2023-04-25T01:58:26;4.33;;;2.83;;
4676;SDS011;2352;48.180;11.478;2023-04-25T02:01:29;2.40;;;2.20;;
4676;SDS011;2352;48.180;11.478;2023-04-25T02:04:32;2.03;;;1.80;;
4676;SDS011;2352;48.180;11.478;2023-04-25T02:07:36;2.40;;;1.77;;
4676;SDS011;2352;48.180;11.478;2023-04-25T02:10:39;1.87;;;1.63;;
4676;SDS011;2352;48.180;11.478;2023-04-25T02:13:42;1.57;;;1.47;;
4676;SDS011;2352;48.180;11.478;2023-04-25T02:16:45;1.40;;;1.30;;
4676;SDS011;2352;48.180;11.478;2023-04-25T02:19:49;1.30;;;1.20;;
4676;SDS011;2352;48.180;11.478;2023-04-25T02:22:53;2.67;;;2.27;;
4676;SDS011;2352;48.180;11.478;2023-04-25T02:25:56;1.63;;;1.50;;
4676;SDS011;2352;48.180;11.478;2023-04-25T02:28:59;3.10;;;1.23;;
4676;SDS011;2352;48.180;11.478;2023-04-25T02:32:02;1.27;;;1.20;;
4676;SDS011;2352;48.180;11.478;2023-04-25T02:35:06;2.00;;;1.80;;
4676;SDS011;2352;48.180;11.478;2023-04-25T02:38:10;1.67;;;1.57;;
4676;SDS011;2352;48.180;11.478;2023-04-25T02:41:13;3.67;;;1.63;;
4676;SDS011;2352;48.180;11.478;2023-04-25T02:44:16;1.70;;;1.60;;
4676;SDS011;2352;48.180;11.478;2023-04-25T02:47:19;1.27;;;1.03;;
4676;SDS011;2352;48.180;11.478;2023-04-25T02:50:22;4.37;;;1.77;;
4676;SDS011;2352;48.180;11.478;2023-04-25T02:53:27;3.67;;;1.60;;
4676;SDS011;2352;48.180;11.478;2023-04-25T02:56:29;1.50;;;1.40;;
4676;SDS011;2352;48.180;11.478;2023-04-25T02:59:33;2.53;;;1.37;;
4676;SDS011;2352;48.180;11.478;2023-04-25T03:02:36;1.73;;;1.60;;
4676;SDS011;2352;48.180;11.478;2023-04-25T03:05:39;1.73;;;1.63;;
4676;SDS011;2352;48.180;11.478;2023-04-25T03:08:43;1.40;;;1.30;;
4676;SDS011;2352;48.180;11.478;2023-04-25T03:11:46;1.83;;;1.50;;
4676;SDS011;2352;48.180;11.478;2023-04-25T03:14:49;2.07;;;1.87;;
4676;SDS011;2352;48.180;11.478;2023-04-25T03:17:52;1.73;;;1.63;;
4676;SDS011;2352;48.180;11.478;2023-04-25T03:20:54;1.73;;;1.63;;
4676;SDS011;2352;48.180;11.478;2023-04-25T03:23:59;1.83;;;1.67;;
4676;SDS011;2352;48.180;11.478;2023-04-25T03:27:03;1.50;;;1.37;;
4676;SDS011;2352;48.180;11.478;2023-04-25T03:30:06;1.63;;;1.50;;
4676;SDS011;2352;48.180;11.478;2023-04-25T03:33:09;1.40;;;1.30;;
4676;SDS011;2352;48.180;11.478;2023-04-25T03:36:12;1.17;;;1.03;;
4676;SDS011;2352;48.180;11.478;2023-04-25T03:39:16;3.33;;;1.40;;
4676;SDS011;2352;48.180;11.478;2023-04-25T03:42:19;1.13;;;1.00;;
4676;SDS011;2352;48.180;11.478;2023-04-25T03:45:24;1.03;;;1.03;;
4676;SDS011;2352;48.180;11.478;2023-04-25T03:48:26;1.47;;;1.33;;
4676;SDS011;2352;48.180;11.478;2023-04-25T03:51:29;1.27;;;1.17;;
4676;SDS011;2352;48.180;11.478;2023-04-25T03:54:34;1.27;;;1.17;;
4676;SDS011;2352;48.180;11.478;2023-04-25T03:57:37;1.63;;;1.00;;
4676;SDS011;2352;48.180;11.478;2023-04-25T04:00:40;1.40;;;0.90;;
4676;SDS011;2352;48.180;11.478;2023-04-25T04:03:42;2.10;;;1.90;;
4676;SDS011;2352;48.180;11.478;2023-04-25T04:06:46;1.20;;;1.10;;
4676;SDS011;2352;48.180;11.478;2023-04-25T04:09:50;1.00;;;1.00;;
4676;SDS011;2352;48.180;11.478;2023-04-25T04:12:53;2.53;;;2.17;;
4676;SDS011;2352;48.180;11.478;2023-04-25T04:15:55;1.50;;;0.97;;
4676;SDS011;2352;48.180;11.478;2023-04-25T04:18:59;1.03;;;1.00;;
4676;SDS011;2352;48.180;11.478;2023-04-25T04:22:01;1.30;;;1.03;;
4676;SDS011;2352;48.180;11.478;2023-04-25T04:25:06;0.97;;;0.90;;
4676;SDS011;2352;48.180;11.478;2023-04-25T04:28:11;1.00;;;0.90;;
4676;SDS011;2352;48.180;11.478;2023-04-25T04:31:14;1.47;;;1.37;;
4676;SDS011;2352;48.180;11.478;2023-04-25T04:34:19;1.70;;;1.33;;
4676;SDS011;2352;48.180;11.478;2023-04-25T04:37:22;1.07;;;0.97;;
4676;SDS011;2352;48.180;11.478;2023-04-25T04:40:26;1.13;;;1.00;;
4676;SDS011;2352;48.180;11.478;2023-04-25T04:43:29;1.10;;;1.00;;
4676;SDS011;2352;48.180;11.478;2023-04-25T04:46:34;1.40;;;1.30;;
4676;SDS011;2352;48.180;11.478;2023-04-25T04:49:39;1.23;;;1.10;;
4676;SDS011;2352;48.180;11.478;2023-04-25T04:52:42;1.13;;;1.03;;
4676;SDS011;2352;48.180;11.478;2023-04-25T04:55:46;2.60;;;1.37;;
4676;SDS011;2352;48.180;11.478;2023-04-25T04:58:49;2.53;;;1.47;;
4676;SDS011;2352;48.180;11.478;2023-04-25T05:01:52;2.20;;;1.00;;
4676;SDS011;2352;48.180;11.478;2023-04-25T05:04:55;1.73;;;1.30;;
4676;SDS011;2352;48.180;11.478;2023-04-25T05:07:58;1.00;;;1.00;;
4676;SDS011;2352;48.180;11.478;2023-04-25T05:11:03;1.23;;;1.20;;
4676;SDS011;2352;48.180;11.478;2023-04-25T05:14:06;1.23;;;1.13;;
4676;SDS011;2352;48.180;11.478;2023-04-25T05:17:08;1.20;;;1.10;;
4676;SDS011;2352;48.180;11.478;2023-04-25T05:20:11;1.27;;;1.20;;
4676;SDS011;2352;48.180;11.478;2023-04-25T05:23:15;2.00;;;1.53;;
4676;SDS011;2352;48.180;11.478;2023-04-25T05:26:19;1.37;;;1.27;;
4676;SDS011;2352;48.180;11.478;2023-04-25T05:29:22;3.17;;;2.53;;
4676;SDS011;2352;48.180;11.478;2023-04-25T05:32:25;2.20;;;2.00;;
4676;SDS011;2352;48.180;11.478;2023-04-25T05:35:28;2.17;;;2.00;;
4676;SDS011;2352;48.180;11.478;2023-04-25T05:38:31;2.00;;;1.90;;
4676;SDS011;2352;48.180;11.478;2023-04-25T05:41:36;1.90;;;1.80;;
4676;SDS011;2352;48.180;11.478;2023-04-25T05:44:39;2.67;;;2.27;;
4676;SDS011;2352;48.180;11.478;2023-04-25T05:47:42;3.67;;;2.97;;
4676;SDS011;2352;48.180;11.478;2023-04-25T05:50:46;7.47;;;4.30;;
4676;SDS011;2352;48.180;11.478;2023-04-25T05:53:48;3.83;;;3.13;;
4676;SDS011;2352;48.180;11.478;2023-04-25T05:56:54;8.53;;;3.27;;
4676;SDS011;2352;48.180;11.478;2023-04-25T05:59:58;3.37;;;2.70;;
4676;SDS011;2352;48.180;11.478;2023-04-25T06:03:01;8.77;;;4.97;;
4676;SDS011;2352;48.180;11.478;2023-04-25T06:06:04;4.60;;;3.63;;
4676;SDS011;2352;48.180;11.478;2023-04-25T06:09:07;5.57;;;3.07;;
4676;SDS011;2352;48.180;11.478;2023-04-25T06:12:11;2.77;;;1.67;;
4676;SDS011;2352;48.180;11.478;2023-04-25T06:15:14;3.37;;;2.80;;
4676;SDS011;2352;48.180;11.478;2023-04-25T06:18:29;6.80;;;3.83;;
4676;SDS011;2352;48.180;11.478;2023-04-25T06:21:31;2.23;;;1.90;;
4676;SDS011;2352;48.180;11.478;2023-04-25T06:24:34;3.67;;;2.63;;
4676;SDS011;2352;48.180;11.478;2023-04-25T06:27:38;7.27;;;3.80;;
4676;SDS011;2352;48.180;11.478;2023-04-25T06:30:41;4.43;;;2.33;;
4676;SDS011;2352;48.180;11.478;2023-04-25T06:33:44;4.60;;;2.93;;
4676;SDS011;2352;48.180;11.478;2023-04-25T06:36:47;3.30;;;3.00;;
4676;SDS011;2352;48.180;11.478;2023-04-25T06:39:50;2.93;;;1.97;;
4676;SDS011;2352;48.180;11.478;2023-04-25T06:42:54;2.40;;;2.20;;
4676;SDS011;2352;48.180;11.478;2023-04-25T06:45:57;2.50;;;2.30;;
4676;SDS011;2352;48.180;11.478;2023-04-25T06:48:59;2.10;;;1.90;;
4676;SDS011;2352;48.180;11.478;2023-04-25T06:52:02;2.27;;;1.60;;
4676;SDS011;2352;48.180;11.478;2023-04-25T06:55:05;2.17;;;2.07;;
4676;SDS011;2352;48.180;11.478;2023-04-25T06:58:10;2.00;;;1.80;;
4676;SDS011;2352;48.180;11.478;2023-04-25T07:01:13;2.23;;;1.90;;
4676;SDS011;2352;48.180;11.478;2023-04-25T07:04:16;1.83;;;1.73;;
4676;SDS011;2352;48.180;11.478;2023-04-25T07:07:19;2.67;;;1.73;;
4676;SDS011;2352;48.180;11.478;2023-04-25T07:10:22;8.53;;;3.00;;
4676;SDS011;2352;48.180;11.478;2023-04-25T07:13:26;2.43;;;1.80;;
4676;SDS011;2352;48.180;11.478;2023-04-25T07:16:29;1.83;;;1.53;;
4676;SDS011;2352;48.180;11.478;2023-04-25T07:19:32;2.33;;;1.73;;
4676;SDS011;2352;48.180;11.478;2023-04-25T07:22:35;1.53;;;1.43;;
4676;SDS011;2352;48.180;11.478;2023-04-25T07:25:38;2.80;;;1.63;;
4676;SDS011;2352;48.180;11.478;2023-04-25T07:28:43;1.07;;;0.97;;
4676;SDS011;2352;48.180;11.478;2023-04-25T07:31:46;2.93;;;1.50;;
4676;SDS011;2352;48.180;11.478;2023-04-25T07:34:49;3.70;;;1.60;;
4676;SDS011;2352;48.180;11.478;2023-04-25T07:37:52;3.40;;;1.37;;
4676;SDS011;2352;48.180;11.478;2023-04-25T07:40:55;4.50;;;1.50;;
4676;SDS011;2352;48.180;11.478;2023-04-25T07:43:59;2.10;;;1.67;;
4676;SDS011;2352;48.180;11.478;2023-04-25T07:47:02;4.57;;;2.30;;
4676;SDS011;2352;48.180;11.478;2023-04-25T07:50:05;1.90;;;1.80;;
4676;SDS011;2352;48.180;11.478;2023-04-25T07:53:09;1.53;;;1.40;;
4676;SDS011;2352;48.180;11.478;2023-04-25T07:56:12;1.90;;;1.77;;
4676;SDS011;2352;48.180;11.478;2023-04-25T07:59:16;1.80;;;1.70;;
4676;SDS011;2352;48.180;11.478;2023-04-25T08:02:19;2.90;;;1.47;;
4676;SDS011;2352;48.180;11.478;2023-04-25T08:05:22;2.47;;;1.57;;
4676;SDS011;2352;48.180;11.478;2023-04-25T08:08:25;2.43;;;1.23;;
4676;SDS011;2352;48.180;11.478;2023-04-25T08:11:28;3.03;;;1.90;;
4676;SDS011;2352;48.180;11.478;2023-04-25T08:14:32;1.97;;;1.77;;
4676;SDS011;2352;48.180;11.478;2023-04-25T08:17:38;2.93;;;2.63;;
4676;SDS011;2352;48.180;11.478;2023-04-25T08:20:41;1.67;;;1.23;;
4676;SDS011;2352;48.180;11.478;2023-04-25T08:23:44;2.33;;;1.80;;
4676;SDS011;2352;48.180;11.478;2023-04-25T08:26:47;1.90;;;1.63;;
4676;SDS011;2352;48.180;11.478;2023-04-25T08:29:51;4.70;;;1.77;;
4676;SDS011;2352;48.180;11.478;2023-04-25T08:32:54;1.43;;;1.33;;
4676;SDS011;2352;48.180;11.478;2023-04-25T08:35:57;2.10;;;1.70;;
4676;SDS011;2352;48.180;11.478;2023-04-25T08:39:00;1.53;;;1.37;;
4676;SDS011;2352;48.180;11.478;2023-04-25T08:42:05;1.77;;;1.40;;
4676;SDS011;2352;48.180;11.478;2023-04-25T08:45:10;3.17;;;1.23;;
4676;SDS011;2352;48.180;11.478;2023-04-25T08:48:13;3.33;;;1.20;;
4676;SDS011;2352;48.180;11.478;2023-04-25T08:51:20;1.17;;;1.07;;
4676;SDS011;2352;48.180;11.478;2023-04-25T08:54:26;1.60;;;1.50;;
4676;SDS011;2352;48.180;11.478;2023-04-25T08:57:36;1.47;;;1.30;;
4676;SDS011;2352;48.180;11.478;2023-04-25T09:00:41;3.23;;;1.00;;
4676;SDS011;2352;48.180;11.478;2023-04-25T09:03:44;1.40;;;1.30;;
4676;SDS011;2352;48.180;11.478;2023-04-25T09:06:48;1.53;;;1.43;;
4676;SDS011;2352;48.180;11.478;2023-04-25T09:09:51;1.43;;;0.93;;
4676;SDS011;2352;48.180;11.478;2023-04-25T09:13:04;1.33;;;0.93;;
4676;SDS011;2352;48.180;11.478;2023-04-25T09:16:09;1.17;;;0.80;;
4676;SDS011;2352;48.180;11.478;2023-04-25T09:19:16;0.90;;;0.90;;
4676;SDS011;2352;48.180;11.478;2023-04-25T09:22:38;0.70;;;0.70;;
4676;SDS011;2352;48.180;11.478;2023-04-25T09:25:41;1.03;;;0.93;;
4676;SDS011;2352;48.180;11.478;2023-04-25T09:28:44;1.23;;;1.00;;
4676;SDS011;2352;48.180;11.478;2023-04-25T09:31:50;1.00;;;0.70;;
4676;SDS011;2352;48.180;11.478;2023-04-25T09:34:53;1.30;;;0.90;;
4676;SDS011;2352;48.180;11.478;2023-04-25T09:37:58;1.00;;;0.90;;
4676;SDS011;2352;48.180;11.478;2023-04-25T09:41:01;1.17;;;1.10;;
4676;SDS011;2352;48.180;11.478;2023-04-25T09:44:04;1.03;;;0.80;;
4676;SDS011;2352;48.180;11.478;2023-04-25T09:47:09;1.10;;;0.97;;
4676;SDS011;2352;48.180;11.478;2023-04-25T09:50:13;1.07;;;1.03;;
4676;SDS011;2352;48.180;11.478;2023-04-25T09:53:17;0.77;;;0.77;;
4676;SDS011;2352;48.180;11.478;2023-04-25T09:56:20;1.30;;;1.17;;
4676;SDS011;2352;48.180;11.478;2023-04-25T09:59:24;1.10;;;1.00;;
4676;SDS011;2352;48.180;11.478;2023-04-25T10:02:28;1.97;;;1.50;;
4676;SDS011;2352;48.180;11.478;2023-04-25T10:05:33;0.80;;;0.80;;
4676;SDS011;2352;48.180;11.478;2023-04-25T10:08:39;0.90;;;0.90;;
4676;SDS011;2352;48.180;11.478;2023-04-25T10:11:42;1.67;;;1.10;;
4676;SDS011;2352;48.180;11.478;2023-04-25T10:14:46;3.10;;;1.20;;
4676;SDS011;2352;48.180;11.478;2023-04-25T10:17:51;2.40;;;1.30;;
4676;SDS011;2352;48.180;11.478;2023-04-25T10:20:55;1.00;;;1.00;;
4676;SDS011;2352;48.180;11.478;2023-04-25T10:24:01;1.70;;;0.90;;
4676;SDS011;2352;48.180;11.478;2023-04-25T10:27:05;1.20;;;1.00;;
4676;SDS011;2352;48.180;11.478;2023-04-25T10:30:09;1.73;;;1.20;;
4676;SDS011;2352;48.180;11.478;2023-04-25T10:33:18;0.90;;;0.90;;
4676;SDS011;2352;48.180;11.478;2023-04-25T10:36:34;0.87;;;0.83;;
4676;SDS011;2352;48.180;11.478;2023-04-25T10:39:39;1.53;;;0.97;;
4676;SDS011;2352;48.180;11.478;2023-04-25T10:42:43;0.70;;;0.70;;
4676;SDS011;2352;48.180;11.478;2023-04-25T10:45:53;0.67;;;0.50;;
4676;SDS011;2352;48.180;11.478;2023-04-25T10:48:57;3.57;;;2.17;;
4676;SDS011;2352;48.180;11.478;2023-04-25T10:52:11;1.93;;;1.17;;
4676;SDS011;2352;48.180;11.478;2023-04-25T10:55:18;0.90;;;0.80;;
4676;SDS011;2352;48.180;11.478;2023-04-25T10:58:22;1.93;;;1.00;;
4676;SDS011;2352;48.180;11.478;2023-04-25T11:01:25;1.53;;;1.07;;
4676;SDS011;2352;48.180;11.478;2023-04-25T11:04:29;2.37;;;1.00;;
4676;SDS011;2352;48.180;11.478;2023-04-25T11:07:38;0.97;;;0.77;;
4676;SDS011;2352;48.180;11.478;2023-04-25T11:10:59;0.77;;;0.77;;
4676;SDS011;2352;48.180;11.478;2023-04-25T11:14:03;1.40;;;0.90;;
4676;SDS011;2352;48.180;11.478;2023-04-25T11:17:05;0.67;;;0.67;;
4676;SDS011;2352;48.180;11.478;2023-04-25T11:20:10;2.33;;;0.70;;
4676;SDS011;2352;48.180;11.478;2023-04-25T11:23:15;0.60;;;0.60;;
4676;SDS011;2352;48.180;11.478;2023-04-25T11:26:18;0.60;;;0.60;;
4676;SDS011;2352;48.180;11.478;2023-04-25T11:29:22;1.67;;;0.63;;
4676;SDS011;2352;48.180;11.478;2023-04-25T11:32:25;0.97;;;0.93;;
4676;SDS011;2352;48.180;11.478;2023-04-25T11:35:29;1.40;;;1.30;;
4676;SDS011;2352;48.180;11.478;2023-04-25T11:38:34;0.90;;;0.90;;
4676;SDS011;2352;48.180;11.478;2023-04-25T11:41:37;1.20;;;1.10;;
4676;SDS011;2352;48.180;11.478;2023-04-25T11:44:42;2.67;;;1.40;;
4676;SDS011;2352;48.180;11.478;2023-04-25T11:47:45;1.00;;;0.73;;
4676;SDS011;2352;48.180;11.478;2023-04-25T11:50:50;2.03;;;0.73;;
4676;SDS011;2352;48.180;11.478;2023-04-25T11:53:52;0.70;;;0.70;;
4676;SDS011;2352;48.180;11.478;2023-04-25T11:56:55;0.40;;;0.40;;
4676;SDS011;2352;48.180;11.478;2023-04-25T12:00:04;0.57;;;0.57;;
4676;SDS011;2352;48.180;11.478;2023-04-25T12:03:09;0.67;;;0.67;;
4676;SDS011;2352;48.180;11.478;2023-04-25T12:06:17;0.60;;;0.60;;
4676;SDS011;2352;48.180;11.478;2023-04-25T12:09:21;1.30;;;0.67;;
4676;SDS011;2352;48.180;11.478;2023-04-25T12:12:32;0.50;;;0.50;;
4676;SDS011;2352;48.180;11.478;2023-04-25T12:15:35;0.50;;;0.50;;
4676;SDS011;2352;48.180;11.478;2023-04-25T12:18:38;1.80;;;0.70;;
4676;SDS011;2352;48.180;11.478;2023-04-25T12:21:44;0.90;;;0.77;;
4676;SDS011;2352;48.180;11.478;2023-04-25T12:24:59;0.70;;;0.70;;
4676;SDS011;2352;48.180;11.478;2023-04-25T12:28:11;0.50;;;0.50;;
4676;SDS011;2352;48.180;11.478;2023-04-25T12:31:15;1.27;;;1.00;;
4676;SDS011;2352;48.180;11.478;2023-04-25T12:34:18;0.80;;;0.80;;
4676;SDS011;2352;48.180;11.478;2023-04-25T12:37:22;1.17;;;0.60;;
4676;SDS011;2352;48.180;11.478;2023-04-25T12:40:25;2.33;;;0.77;;
4676;SDS011;2352;48.180;11.478;2023-04-25T12:43:28;0.80;;;0.80;;
4676;SDS011;2352;48.180;11.478;2023-04-25T12:46:31;1.17;;;0.83;;
4676;SDS011;2352;48.180;11.478;2023-04-25T12:49:34;1.20;;;1.10;;
4676;SDS011;2352;48.180;11.478;2023-04-25T12:52:38;1.13;;;0.80;;
4676;SDS011;2352;48.180;11.478;2023-04-25T12:55:41;1.23;;;1.13;;
4676;SDS011;2352;48.180;11.478;2023-04-25T12:58:44;0.83;;;0.83;;
4676;SDS011;2352;48.180;11.478;2023-04-25T13:01:47;1.07;;;0.93;;
4676;SDS011;2352;48.180;11.478;2023-04-25T13:04:50;2.07;;;0.73;;
4676;SDS011;2352;48.180;11.478;2023-04-25T13:07:54;0.80;;;0.57;;
4676;SDS011;2352;48.180;11.478;2023-04-25T13:10:57;2.23;;;1.10;;
4676;SDS011;2352;48.180;11.478;2023-04-25T13:14:01;1.07;;;0.60;;
4676;SDS011;2352;48.180;11.478;2023-04-25T13:17:04;0.67;;;0.67;;
4676;SDS011;2352;48.180;11.478;2023-04-25T13:20:07;0.93;;;0.87;;
4676;SDS011;2352;48.180;11.478;2023-04-25T13:23:15;0.50;;;0.50;;
4676;SDS011;2352;48.180;11.478;2023-04-25T13:26:18;0.80;;;0.80;;
4676;SDS011;2352;48.180;11.478;2023-04-25T13:29:21;2.30;;;0.83;;
4676;SDS011;2352;48.180;11.478;2023-04-25T13:32:24;0.80;;;0.70;;
4676;SDS011;2352;48.180;11.478;2023-04-25T13:35:27;2.63;;;0.90;;
4676;SDS011;2352;48.180;11.478;2023-04-25T13:38:31;0.60;;;0.60;;
4676;SDS011;2352;48.180;11.478;2023-04-25T13:41:34;0.40;;;0.40;;
4676;SDS011;2352;48.180;11.478;2023-04-25T13:44:37;1.00;;;0.83;;
4676;SDS011;2352;48.180;11.478;2023-04-25T13:47:39;1.27;;;0.73;;
4676;SDS011;2352;48.180;11.478;2023-04-25T13:50:42;0.90;;;0.90;;
4676;SDS011;2352;48.180;11.478;2023-04-25T13:53:46;0.93;;;0.93;;
4676;SDS011;2352;48.180;11.478;2023-04-25T13:56:49;2.13;;;0.90;;
4676;SDS011;2352;48.180;11.478;2023-04-25T13:59:53;1.50;;;1.40;;
4676;SDS011;2352;48.180;11.478;2023-04-25T14:02:56;1.50;;;1.40;;
4676;SDS011;2352;48.180;11.478;2023-04-25T14:05:59;0.93;;;0.80;;
4676;SDS011;2352;48.180;11.478;2023-04-25T14:09:03;0.73;;;0.73;;
4676;SDS011;2352;48.180;11.478;2023-04-25T14:12:07;1.20;;;1.10;;
4676;SDS011;2352;48.180;11.478;2023-04-25T14:15:10;1.00;;;0.97;;
4676;SDS011;2352;48.180;11.478;2023-04-25T14:18:13;0.80;;;0.80;;
4676;SDS011;2352;48.180;11.478;2023-04-25T14:21:16;0.90;;;0.90;;
4676;SDS011;2352;48.180;11.478;2023-04-25T14:24:20;0.90;;;0.90;;
4676;SDS011;2352;48.180;11.478;2023-04-25T14:27:23;0.70;;;0.70;;
4676;SDS011;2352;48.180;11.478;2023-04-25T14:30:29;0.77;;;0.77;;
4676;SDS011;2352;48.180;11.478;2023-04-25T14:33:32;0.67;;;0.67;;
4676;SDS011;2352;48.180;11.478;2023-04-25T14:36:35;0.83;;;0.83;;
4676;SDS011;2352;48.180;11.478;2023-04-25T14:39:39;0.60;;;0.53;;
4676;SDS011;2352;48.180;11.478;2023-04-25T14:42:44;0.33;;;0.33;;
4676;SDS011;2352;48.180;11.478;2023-04-25T14:45:47;0.67;;;0.33;;
4676;SDS011;2352;48.180;11.478;2023-04-25T14:48:50;0.27;;;0.27;;
4676;SDS011;2352;48.180;11.478;2023-04-25T14:51:53;0.40;;;0.40;;
4676;SDS011;2352;48.180;11.478;2023-04-25T14:54:57;0.40;;;0.40;;
4676;SDS011;2352;48.180;11.478;2023-04-25T14:58:01;0.53;;;0.53;;
4676;SDS011;2352;48.180;11.478;2023-04-25T15:01:04;0.67;;;0.40;;
4676;SDS011;2352;48.180;11.478;2023-04-25T15:04:08;0.50;;;0.50;;
4676;SDS011;2352;48.180;11.478;2023-04-25T15:07:12;0.80;;;0.80;;
4676;SDS011;2352;48.180;11.478;2023-04-25T15:10:19;0.47;;;0.47;;
4676;SDS011;2352;48.180;11.478;2023-04-25T15:13:22;0.87;;;0.87;;
4676;SDS011;2352;48.180;11.478;2023-04-25T15:16:25;0.77;;;0.70;;
4676;SDS011;2352;48.180;11.478;2023-04-25T15:19:27;0.80;;;0.80;;
4676;SDS011;2352;48.180;11.478;2023-04-25T15:22:30;0.97;;;0.93;;
4676;SDS011;2352;48.180;11.478;2023-04-25T15:25:35;0.80;;;0.80;;
4676;SDS011;2352;48.180;11.478;2023-04-25T15:28:37;0.77;;;0.77;;
4676;SDS011;2352;48.180;11.478;2023-04-25T15:31:40;1.17;;;1.10;;
4676;SDS011;2352;48.180;11.478;2023-04-25T15:34:43;1.17;;;1.17;;
4676;SDS011;2352;48.180;11.478;2023-04-25T15:37:46;1.13;;;1.13;;
4676;SDS011;2352;48.180;11.478;2023-04-25T15:40:50;0.70;;;0.70;;
4676;SDS011;2352;48.180;11.478;2023-04-25T15:43:54;0.60;;;0.60;;
4676;SDS011;2352;48.180;11.478;2023-04-25T15:46:57;1.03;;;0.73;;
4676;SDS011;2352;48.180;11.478;2023-04-25T15:50:00;0.70;;;0.70;;
4676;SDS011;2352;48.180;11.478;2023-04-25T15:53:05;0.60;;;0.60;;
4676;SDS011;2352;48.180;11.478;2023-04-25T15:56:09;0.93;;;0.93;;
4676;SDS011;2352;48.180;11.478;2023-04-25T15:59:12;1.37;;;1.27;;
4676;SDS011;2352;48.180;11.478;2023-04-25T16:02:15;1.37;;;1.27;;
4676;SDS011;2352;48.180;11.478;2023-04-25T16:05:18;0.97;;;0.97;;
4676;SDS011;2352;48.180;11.478;2023-04-25T16:08:21;1.00;;;1.00;;
4676;SDS011;2352;48.180;11.478;2023-04-25T16:11:27;1.40;;;1.30;;
4676;SDS011;2352;48.180;11.478;2023-04-25T16:14:30;1.30;;;1.20;;
4676;SDS011;2352;48.180;11.478;2023-04-25T16:17:33;1.23;;;1.13;;
4676;SDS011;2352;48.180;11.478;2023-04-25T16:20:36;1.17;;;1.17;;
4676;SDS011;2352;48.180;11.478;2023-04-25T16:23:39;1.93;;;1.23;;
4676;SDS011;2352;48.180;11.478;2023-04-25T16:26:43;1.60;;;0.90;;
4676;SDS011;2352;48.180;11.478;2023-04-25T16:29:46;1.40;;;1.30;;
4676;SDS011;2352;48.180;11.478;2023-04-25T16:32:51;1.50;;;1.40;;
4676;SDS011;2352;48.180;11.478;2023-04-25T16:35:54;1.37;;;1.27;;
4676;SDS011;2352;48.180;11.478;2023-04-25T16:38:57;2.00;;;1.90;;
4676;SDS011;2352;48.180;11.478;2023-04-25T16:42:02;1.50;;;1.40;;
4676;SDS011;2352;48.180;11.478;2023-04-25T16:45:06;1.73;;;1.33;;
4676;SDS011;2352;48.180;11.478;2023-04-25T16:48:09;1.87;;;1.43;;
4676;SDS011;2352;48.180;11.478;2023-04-25T16:51:12;1.60;;;1.50;;
4676;SDS011;2352;48.180;11.478;2023-04-25T16:54:15;1.67;;;1.57;;
4676;SDS011;2352;48.180;11.478;2023-04-25T16:57:19;2.60;;;2.40;;
4676;SDS011;2352;48.180;11.478;2023-04-25T17:00:22;1.90;;;1.67;;
4676;SDS011;2352;48.180;11.478;2023-04-25T17:03:25;2.00;;;1.87;;
4676;SDS011;2352;48.180;11.478;2023-04-25T17:06:28;1.77;;;1.63;;
4676;SDS011;2352;48.180;11.478;2023-04-25T17:09:31;2.17;;;1.90;;
4676;SDS011;2352;48.180;11.478;2023-04-25T17:12:35;1.83;;;1.73;;
4676;SDS011;2352;48.180;11.478;2023-04-25T17:15:38;2.73;;;1.40;;
4676;SDS011;2352;48.180;11.478;2023-04-25T17:18:41;2.03;;;1.83;;
4676;SDS011;2352;48.180;11.478;2023-04-25T17:21:44;2.10;;;2.00;;
4676;SDS011;2352;48.180;11.478;2023-04-25T17:24:47;3.50;;;2.50;;
4676;SDS011;2352;48.180;11.478;2023-04-25T17:27:52;2.17;;;2.07;;
4676;SDS011;2352;48.180;11.478;2023-04-25T17:30:56;3.17;;;2.47;;
4676;SDS011;2352;48.180;11.478;2023-04-25T17:33:58;3.00;;;2.80;;
4676;SDS011;2352;48.180;11.478;2023-04-25T17:37:01;3.03;;;2.83;;
4676;SDS011;2352;48.180;11.478;2023-04-25T17:40:05;3.37;;;3.07;;
4676;SDS011;2352;48.180;11.478;2023-04-25T17:43:13;3.10;;;2.90;;
4676;SDS011;2352;48.180;11.478;2023-04-25T17:46:16;3.63;;;3.23;;
4676;SDS011;2352;48.180;11.478;2023-04-25T17:49:19;3.57;;;3.37;;
4676;SDS011;2352;48.180;11.478;2023-04-25T17:52:22;2.93;;;2.73;;
4676;SDS011;2352;48.180;11.478;2023-04-25T17:55:25;3.17;;;2.97;;
4676;SDS011;2352;48.180;11.478;2023-04-25T17:58:30;3.60;;;3.30;;
4676;SDS011;2352;48.180;11.478;2023-04-25T18:01:33;2.93;;;2.70;;
4676;SDS011;2352;48.180;11.478;2023-04-25T18:04:36;1.50;;;1.40;;
4676;SDS011;2352;48.180;11.478;2023-04-25T18:07:39;1.60;;;0.90;;
4676;SDS011;2352;48.180;11.478;2023-04-25T18:10:42;3.03;;;2.37;;
4676;SDS011;2352;48.180;11.478;2023-04-25T18:13:47;2.73;;;2.00;;
4676;SDS011;2352;48.180;11.478;2023-04-25T18:16:50;3.00;;;2.80;;
4676;SDS011;2352;48.180;11.478;2023-04-25T18:19:53;1.30;;;1.30;;
4676;SDS011;2352;48.180;11.478;2023-04-25T18:22:56;2.37;;;2.27;;
4676;SDS011;2352;48.180;11.478;2023-04-25T18:25:59;2.47;;;2.33;;
4676;SDS011;2352;48.180;11.478;2023-04-25T18:29:05;2.77;;;2.57;;
4676;SDS011;2352;48.180;11.478;2023-04-25T18:32:08;2.27;;;2.17;;
4676;SDS011;2352;48.180;11.478;2023-04-25T18:35:11;2.67;;;2.57;;
4676;SDS011;2352;48.180;11.478;2023-04-25T18:38:14;2.90;;;2.70;;
4676;SDS011;2352;48.180;11.478;2023-04-25T18:41:35;2.67;;;2.47;;
4676;SDS011;2352;48.180;11.478;2023-04-25T18:44:56;4.10;;;3.80;;